Jack C. Davis Observatory, Carson City, Nevada Weather observations

Data are for observation ending at time listed.
 Day   Time    Ave.   Ave.  Ave.  Vector   Max.   Stn.    Total    Solar   Ave.  
  of    of     Air    Rel.  Wind   Wind    Wind   Baro.  Precip.   Rad.    Soil  
Year   Day     Temp.  Hum.  Speed  Dir.    Gust   Pres.                    Temp. 
2020   (PST)    F      %     mph   deg.    mph     mb.     in.     W/m2     F   
------------------------------------------------------------------------------
 269   14:00   83.2    10    6.1   242     14.2   847.3    0.00     644    999.0
 269   14:10   83.9    10    7.4   209     13.1   847.3    0.00     634    999.0
 269   14:20   83.2    11    6.4   240     12.3   847.2    0.00     609    999.0
 269   14:30   82.9    12    5.4   265     10.5   847.1    0.00     563    999.0
 269   14:40   83.1    12    3.1   257      7.1   847.0    0.00     545    999.0
 269   14:50   83.7    12    3.6   234      7.5   847.0    0.00     534    999.0
 269   15:00   83.9    12    4.5   221     13.0   846.9    0.00     528    999.0
 269   15:10   83.2    13    6.4   265     13.0   846.9    0.00     478    999.0
 269   15:20   82.4    13    6.3   254     11.1   846.9    0.00     453    999.0
 269   15:30   84.0    13    2.6   270      8.2   846.8    0.00     435    999.0
 269   15:40   83.2    14    5.5   276      9.9   846.8    0.00     391    999.0
 269   15:50   82.1    14    6.0   282     12.5   846.7    0.00     356    999.0
 269   16:00   82.2    14    5.6   233     12.0   846.6    0.00     335    999.0
 269   16:10   81.6    14    5.6   272     15.3   846.6    0.00     287    999.0
 269   16:20   80.6    15    7.1   265     15.6   846.6    0.00     275    999.0
 269   16:30   80.6    16    6.0   263     16.2   846.6    0.00     241    999.0
 269   16:40   80.3    16    4.8   229     13.2   846.6    0.00     208    999.0
 269   16:50   79.6    17    7.3   210     20.6   846.6    0.00     179    999.0
 269   17:00   78.9    17    4.9   117     17.6   846.6    0.00     147    999.0
 269   17:10   78.0    18    4.5   134      9.9   846.7    0.00      21    999.0
 269   17:20   76.9    19    7.6   143     22.0   846.8    0.00      14    999.0
 269   17:30   76.6    20    3.7   322     11.8   847.0    0.00      11    999.0
 269   17:40   76.1    20    5.8    65     10.4   847.0    0.00       9    999.0
 269   17:50   75.6    21    4.6   250     13.7   847.0    0.00       6    999.0
 269   18:00   75.6    21    9.5   264     19.9   847.1    0.00       3    999.0
 269   18:10   75.9    20    5.7   260     16.2   847.2    0.00       1    999.0
 269   18:20   74.6    22    4.9   231     11.8   847.6    0.00       0    999.0
 269   18:30   74.3    22    6.4   249     19.5   847.7    0.00       0    999.0
 269   18:40   73.6    22    3.3   261     10.2   847.9    0.00       0    999.0
 269   18:50   72.4    25    6.5   288     13.7   848.1    0.00       0    999.0
 269   19:00   72.1    26    7.8   280     13.1   848.2    0.00       0    999.0
 269   19:10   72.1    26    7.4   276     14.2   848.4    0.00       0    999.0
 269   19:20   71.9    27    5.8   292     12.3   848.5    0.00       0    999.0
 269   19:30   71.9    27   10.1   290     15.9   848.6    0.00       0    999.0
 269   19:40   71.2    28   12.5   292     18.9   848.6    0.00       0    999.0
 269   19:50   71.0    28   12.3   276     22.3   848.6    0.00       0    999.0
 269   20:00   70.6    28   10.0   271     18.0   848.6    0.00       0    999.0
 269   20:10   70.3    28    7.8   274     11.8   848.6    0.00       0    999.0
 269   20:20   70.8    25    9.3   269     15.3   848.8    0.00       0    999.0
 269   20:30   70.3    25    8.0   272     14.0   848.9    0.00       0    999.0
 269   20:40   70.7    22    7.9   234     18.5   849.0    0.00       0    999.0
 269   20:50   69.9    23    8.3   236     17.4   849.0    0.00       0    999.0
 269   21:00   70.0    20    5.6   220     12.3   849.0    0.00       0    999.0
 269   21:10   70.3    21    5.4   231     12.7   848.9    0.00       0    999.0
 269   21:20   70.1    20    6.0   270      9.3   848.9    0.00       0    999.0
 269   21:30   69.5    21    7.0   296     10.0   849.0    0.00       0    999.0
 269   21:40   68.2    24    3.6   318     10.4   849.1    0.00       0    999.0
 269   21:50   66.5    28    1.3   279      3.9   849.1    0.00       0    999.0
 269   22:00   68.0    22    6.1   278     10.7   849.0    0.00       0    999.0
 269   22:10   68.3    22    4.9   236      8.5   849.0    0.00       0    999.0
 269   22:20   67.6    23    3.2   228      6.1   849.1    0.00       0    999.0
 269   22:30   66.6    25    1.8    28      3.8   849.1    0.00       0    999.0
 269   22:40   65.9    25    1.8   349      4.3   849.2    0.00       0    999.0
 269   22:50   66.0    25    1.3    83      4.4   849.0    0.00       0    999.0
 269   23:00   66.2    25    2.3   242      6.4   849.1    0.00       0    999.0
 269   23:10   66.9    24    3.7   230      6.1   849.1    0.00       0    999.0
 269   23:20   66.5    23    1.8   278      5.2   849.1    0.00       0    999.0
 269   23:30   66.4    23    1.8   232      6.5   849.1    0.00       0    999.0
 269   23:40   65.3    25    2.4   220      4.6   849.0    0.00       0    999.0
 269   23:50   64.2    26    2.8   261      4.6   849.0    0.00       0    999.0
 270    0:00   64.2    26    2.8   284      4.3   849.0    0.00       0    999.0
 270    0:10   64.0    28    4.0   285      7.5   849.0    0.00       0    999.0
 270    0:20   64.5    27    2.7   213      4.7   848.8    0.00       0    999.0
 270    0:30   63.3    28    3.5   208      6.6   848.8    0.00       0    999.0
 270    0:40   62.6    28    3.5   266      5.3   848.8    0.00       0    999.0
 270    0:50   62.3    29    3.6   282      5.2   848.8    0.00       0    999.0
 270    1:00   60.8    32    2.8   316      5.8   848.9    0.00       0    999.0
 270    1:10   59.7    37    3.5   316      5.6   849.0    0.00       0    999.0
 270    1:20   60.0    36    4.1   313      7.4   849.2    0.00       0    999.0
 270    1:30   61.2    37    3.4   308      6.2   849.2    0.00       0    999.0
 270    1:40   60.5    37    3.9   279      5.6   848.9    0.00       0    999.0
 270    1:50   60.7    34    4.2   280      5.6   848.9    0.00       0    999.0
 270    2:00   60.0    38    4.5   323      6.5   849.0    0.00       0    999.0
 270    2:10   58.4    39    3.8   306      6.8   849.1    0.00       0    999.0
 270    2:20   59.1    38    3.4   308      7.8   849.0    0.00       0    999.0
 270    2:30   60.4    38    5.7   305      9.2   848.9    0.00       0    999.0
 270    2:40   59.7    37    3.0   307      7.4   848.9    0.00       0    999.0
 270    2:50   59.6    40    6.2   319     10.3   849.0    0.00       0    999.0
 270    3:00   60.1    40    7.3   318     12.3   848.9    0.00       0    999.0
 270    3:10   60.6    37    6.1   311     13.5   849.0    0.00       0    999.0
 270    3:20   60.6    36    3.6   289      9.2   849.1    0.00       0    999.0
 270    3:30   60.7    37    4.5   313      9.4   849.1    0.00       0    999.0
 270    3:40   60.2    38    5.6   303     10.1   849.0    0.00       0    999.0
 270    3:50   58.5    39    4.0   292      7.2   849.1    0.00       0    999.0
 270    4:00   58.7    39    5.5   301     11.0   849.2    0.00       0    999.0
 270    4:10   59.6    38    5.8   306     10.8   849.2    0.00       0    999.0
 270    4:20   59.1    41    8.0   304     12.6   849.4    0.00       0    999.0
 270    4:30   58.2    42    8.8   304     13.3   849.5    0.00       0    999.0
 270    4:40   58.1    41   10.6   308     15.2   849.4    0.00       0    999.0
 270    4:50   57.8    41    8.7   301     13.2   849.4    0.00       0    999.0
 270    5:00   57.7    42   10.7   306     14.9   849.5    0.00       0    999.0
 270    5:10   57.7    41    8.6   304     13.7   849.5    0.00       0    999.0
 270    5:20   58.0    40    7.6   301     11.7   849.6    0.00       0    999.0
 270    5:30   58.0    40    7.1   306     10.7   849.6    0.00       0    999.0
 270    5:40   58.0    40    6.2   304     11.5   849.6    0.00       0    999.0
 270    5:50   56.5    43    4.8   317      7.5   849.6    0.00       1    999.0
 270    6:00   56.9    41    6.3   314     10.9   849.7    0.00       4    999.0
 270    6:10   58.7    38    6.9   320     10.7   849.8    0.00      11    999.0
 270    6:20   59.5    37    6.7   319     13.2   849.7    0.00      30    999.0
 270    6:30   59.7    37    7.3   321     13.6   849.9    0.00      59    999.0
 270    6:40   59.0    39    7.2   317     11.1   849.9    0.00      94    999.0
 270    6:50   60.1    37    5.3   328     10.2   849.8    0.00     124    999.0
 270    7:00   62.1    34    3.5   290      7.5   849.8    0.00     156    999.0
 270    7:10   64.7    31    3.5   330      8.3   849.7    0.00     180    999.0
 270    7:20   64.4    32    3.8   350     10.4   849.9    0.00     218    999.0
 270    7:30   63.6    33    6.4   324     13.4   850.1    0.00     198    999.0
 270    7:40   62.1    37   10.4   315     14.9   850.2    0.00     276    999.0
 270    7:50   61.6    42    9.7   325     16.7   850.3    0.00     255    999.0
 270    8:00   62.3    39    8.5   331     15.3   850.4    0.00     249    999.0
 270    8:10   64.2    35   10.1   320     19.6   850.4    0.00     276    999.0
 270    8:20   65.2    34   10.9   318     17.8   850.3    0.00     379    999.0
 270    8:30   65.9    33   11.4   322     19.7   850.2    0.00     415    999.0
 270    8:40   66.7    33    8.0   329     14.8   850.2    0.00     448    999.0
 270    8:50   66.9    32    5.6   341     13.9   850.2    0.00     476    999.0
 270    9:00   67.4    31    5.1   344     11.2   850.3    0.00     492    999.0
 270    9:10   67.9    31    5.7   335     11.5   850.3    0.00     510    999.0
 270    9:20   68.6    30    4.9   341     11.0   850.1    0.00     552    999.0
 270    9:30   69.6    30    5.6   333     12.1   850.1    0.00     585    999.0
 270    9:40   70.5    29    5.6   336     12.1   850.1    0.00     595    999.0
 270    9:50   70.8    29    6.0   337     15.6   850.1    0.00     606    999.0
 270   10:00   71.1    29    6.8   339     15.9   850.2    0.00     636    999.0
 270   10:10   71.7    30    5.9   343     12.6   850.1    0.00     642    999.0
 270   10:20   71.7    30    6.0   342     14.0   850.2    0.00     672    999.0
 270   10:30   72.3    29    5.8   337     13.4   850.1    0.00     669    999.0
 270   10:40   72.2    29    5.1   343     13.5   850.0    0.00     636    999.0
 270   10:50   72.3    29    8.5   324     14.3   849.9    0.00     700    999.0
 270   11:00   72.8    28    8.1   325     15.6   849.8    0.00     669    999.0
 270   11:10   73.1    28    9.4   321     17.6   849.9    0.00     678    999.0
 270   11:20   74.1    28    6.9   329     13.5   849.9    0.00     707    999.0
 270   11:30   74.5    28    4.8   350     13.0   849.9    0.00     712    999.0
 270   11:40   74.2    28    5.3   344     14.4   849.8    0.00     700    999.0
 270   11:50   75.0    27    5.9   335     13.9   849.7    0.00     710    999.0
 270   12:00   75.4    27    4.9   343     13.7   849.7    0.00     714    999.0
 270   12:10   75.3    27    6.0   341     13.7   849.6    0.00     716    999.0
 270   12:20   75.7    27    6.7   324     13.7   849.5    0.00     714    999.0
 270   12:30   76.1    26    5.8   325     11.0   849.4    0.00     691    999.0
 270   12:40   76.8    26    6.2   323     13.2   849.2    0.00     701    999.0
 270   12:50   77.3    26    5.0   330     10.1   849.0    0.00     705    999.0
 270   13:00   77.0    26    6.3   328     12.1   848.9    0.00     672    999.0
 270   13:10   77.5    25    3.7     4      9.9   848.8    0.00     686    999.0
 270   13:20   77.4    26    5.1   358     10.8   848.6    0.00     693    999.0
 270   13:30   77.5    25    4.6     3     10.1   848.5    0.00     652    999.0
 270   13:40   77.8    25    5.0   339     11.9   848.4    0.00     659    999.0
 270   13:50   78.1    25    6.0   331     14.0   848.4    0.00     637    999.0

Return to Yerington, Nevada graphs page.


Western Regional Climate Center,wrcc@dri.edu